Latest Weather Observations for Shepparton

IDV60801

Issued at 10:31 am EDT Friday 27 March 2015 (issued every 30 minutes, with the page automatically refreshed every 10 minutes)

About weather observations | Map of weather stations | Latest weather observations for VIC | Other Formats
Station Details ID: 081125 Name: SHEPPARTON AIRPORT Lat: -36.43 Lon: 145.39 Height: 113.9 m
Data from the previous 72 hours. | See also: Recent months at Shepparton
Date/Time
EDT
Temp
°C
App
Temp
°C
Dew
Point
Rel
Hum
%
Delta-T
°C
Wind Press
QNH
hPa
Press
MSL
hPa
Rain
since 9 am
mm
Dir
 
Spd
km/h
Gust
km/h
Spd
kts
Gust
kts
27/10:30am 15.4 9.8 8.6 64 3.5 WSW 28 37 15 20 1024.4 1024.1 0.0
27/10:00am 14.7 9.9 8.9 68 3.0 WSW 24 35 13 19 1024.3 1024.0 0.0
27/09:30am 13.4 9.0 9.1 75 2.2 WSW 22 30 12 16 1024.2 1023.9 0.0
27/09:00am 12.1 8.4 9.3 83 1.4 WSW 19 28 10 15 1024.0 1023.7 0.0
27/08:30am 10.6 8.3 9.0 90 0.8 W 11 13 6 7 1023.7 1023.4 0.0
27/08:00am 8.9 6.8 8.1 95 0.4 W 9 11 5 6 1023.3 1023.0 0.0
27/07:30am 8.3 5.9 7.2 93 0.5 W 9 11 5 6 1023.1 1022.8 0.0
27/07:00am 8.9 5.9 7.7 92 0.6 W 13 20 7 11 1022.7 1022.4 0.0
27/06:30am 9.0 5.6 7.6 91 0.7 W 15 20 8 11 1022.4 1022.1 0.0
27/06:00am 9.0 5.2 7.5 90 0.7 W 17 22 9 12 1022.0 1021.7 0.0
27/05:30am 9.0 5.9 7.1 88 0.9 W 13 17 7 9 1021.9 1021.6 0.0
27/05:00am 9.3 5.8 7.1 86 1.0 WNW 15 20 8 11 1021.8 1021.5 0.0
27/04:30am 9.4 6.2 6.8 84 1.2 W 13 17 7 9 1021.9 1021.6 0.0
27/04:00am 9.8 6.9 6.7 81 1.5 WNW 11 15 6 8 1021.9 1021.6 0.0
27/03:30am 10.2 6.2 6.7 79 1.7 W 17 22 9 12 1021.8 1021.5 0.0
27/03:00am 10.6 6.6 6.7 77 1.8 W 17 24 9 13 1022.0 1021.7 0.0
27/02:30am 10.9 6.8 6.3 73 2.2 W 17 28 9 15 1022.0 1021.7 0.0
27/02:00am 11.3 6.6 6.2 71 2.4 W 20 32 11 17 1021.9 1021.6 0.0
27/01:30am 11.7 7.6 6.0 68 2.7 WNW 17 26 9 14 1021.9 1021.6 0.0
27/01:00am 12.2 7.7 6.0 66 2.9 WNW 19 28 10 15 1021.9 1021.6 0.0
27/12:30am 12.8 7.4 6.4 65 3.1 W 24 32 13 17 1021.8 1021.5 0.0
27/12:00am 13.0 7.5 5.9 62 3.4 WNW 24 37 13 20 1021.8 1021.5 0.0
 
Date/Time
EDT
Temp
°C
App
Temp
°C
Dew
Point
Rel
Hum
%
Delta-T
°C
Wind Press
QNH
hPa
Press
MSL
hPa
Rain
since 9 am
mm
Dir
 
Spd
km/h
Gust
km/h
Spd
kts
Gust
kts
26/11:30pm 13.4 7.8 5.6 59 3.7 W 24 33 13 18 1021.8 1021.5 0.0
26/11:00pm 13.7 7.7 5.1 56 4.0 W 26 39 14 21 1021.8 1021.5 0.0
26/10:30pm 14.5 7.3 4.8 52 4.5 WNW 32 46 17 25 1021.6 1021.3 0.0
26/10:00pm 15.1 8.9 4.2 48 5.0 W 26 37 14 20 1021.5 1021.2 0.0
26/09:30pm 15.3 9.0 3.8 46 5.3 WNW 26 43 14 23 1021.3 1021.0 0.0
26/09:00pm 15.1 9.9 3.3 45 5.4 WNW 20 30 11 16 1021.2 1020.9 0.0
26/08:30pm 15.2 10.0 2.7 43 5.6 WNW 19 28 10 15 1020.9 1020.6 0.0
26/08:00pm 15.6 10.1 2.1 40 6.0 WNW 20 33 11 18 1020.5 1020.1 0.0
26/07:30pm 16.0 9.7 1.7 38 6.4 WNW 24 39 13 21 1020.2 1019.8 0.0
26/07:00pm 16.7 9.2 1.2 35 6.8 W 30 48 16 26 1019.9 1019.5 0.0
26/06:59pm 16.7 9.2 1.2 35 6.9 W 30 48 16 26 1019.9 1019.5 0.0
26/06:30pm 17.0 9.7 0.2 32 7.3 W 28 43 15 23 1019.7 1019.3 0.0
26/06:00pm 18.0 9.3 -0.8 28 8.0 W 35 46 19 25 1019.3 1018.9 0.0
26/05:43pm 17.9 9.8 -0.4 29 7.9 W 32 50 17 27 1019.3 1018.9 0.0
26/05:30pm 17.7 8.9 -1.0 28 8.0 W 35 50 19 27 1019.1 1018.8 0.0
26/05:12pm 18.0 10.2 -0.8 28 8.1 W 30 48 16 26 1019.1 1018.8 0.0
26/05:00pm 18.3 10.9 -1.0 27 8.3 W 28 43 15 23 1019.1 1018.8 0.0
26/04:30pm 18.8 10.7 -0.6 27 8.4 W 32 54 17 29 1019.1 1018.8 0.0
26/04:26pm 17.7 10.3 -1.0 28 8.0 W 28 54 15 29 1019.1 1018.8 0.0
26/04:00pm 18.7 11.7 -0.2 28 8.2 W 26 37 14 20 1019.3 1018.9 0.0
26/03:57pm 18.1 10.8 -0.2 29 8.0 W 28 46 15 25 1019.3 1018.9 0.0
26/03:30pm 17.4 9.0 -1.3 28 7.9 WNW 33 46 18 25 1019.3 1018.9 0.0
26/03:20pm 18.0 10.6 -0.8 28 8.1 W 28 50 15 27 1019.4 1019.0 0.0
26/03:00pm 16.7 8.4 -0.1 32 7.2 W 33 48 18 26 1019.6 1019.2 0.0
26/02:30pm 17.7 11.7 0.8 32 7.5 W 22 37 12 20 1019.9 1019.5 0.0
26/02:23pm 17.7 10.5 0.8 32 7.5 W 28 46 15 25 1020.0 1019.6 0.0
26/02:00pm 17.2 10.0 0.8 33 7.2 W 28 43 15 23 1020.1 1019.7 0.0
26/01:38pm 18.3 11.1 0.4 30 7.9 W 28 46 15 25 1020.2 1019.8 0.0
26/01:30pm 17.5 9.5 0.6 32 7.4 W 32 43 17 23 1020.2 1019.8 0.0
26/01:20pm 16.2 8.9 -0.1 33 7.0 W 28 46 15 25 1020.2 1019.8 0.0
26/01:00pm 16.5 10.4 2.5 39 6.3 WNW 24 35 13 19 1020.4 1020.0 0.0
26/12:30pm 15.8 10.0 2.2 40 6.1 WNW 22 35 12 19 1020.6 1020.3 0.0
26/12:00pm 16.0 9.7 3.8 44 5.6 WNW 26 35 14 19 1021.0 1020.7 0.0
26/11:30am 13.9 7.2 3.9 51 4.6 W 28 37 15 20 1021.0 1020.7 0.0
26/11:12am 14.0 7.3 3.5 49 4.8 W 28 46 15 25 1020.9 1020.6 0.0
26/11:00am 13.7 7.6 4.6 54 4.2 W 26 39 14 21 1020.9 1020.6 0.0
26/10:30am 13.2 6.8 5.1 58 3.8 W 28 35 15 19 1020.8 1020.5 0.0
26/10:00am 12.5 7.3 5.7 63 3.2 W 22 32 12 17 1020.6 1020.3 0.0
26/09:30am 11.8 6.1 6.5 70 2.5 W 26 39 14 21 1020.5 1020.1 0.0
26/09:00am 10.9 6.1 7.2 78 1.8 WNW 22 32 12 17 1020.1 1019.7 0.0
26/08:30am 10.0 6.0 6.7 80 1.6 WNW 17 22 9 12 1019.8 1019.4 0.0
26/08:00am 9.3 6.0 6.2 81 1.4 WNW 13 19 7 10 1019.4 1019.0 0.0
26/07:30am 9.3 4.8 5.9 79 1.6 W 19 24 10 13 1019.0 1018.7 0.0
26/07:00am 10.0 5.4 5.6 74 2.0 W 19 28 10 15 1018.4 1018.1 0.0
26/06:30am 10.8 6.5 5.1 68 2.6 W 17 20 9 11 1018.2 1017.9 0.0
26/06:00am 11.3 5.5 4.5 63 3.1 W 24 33 13 18 1017.8 1017.5 0.0
26/05:30am 11.8 7.4 6.5 70 2.5 W 19 28 10 15 1017.4 1017.1 0.0
26/05:00am 12.5 8.3 5.7 63 3.2 WSW 17 22 9 12 1017.0 1016.7 0.0
26/04:30am 12.7 8.2 6.1 64 3.1 W 19 26 10 14 1016.7 1016.4 0.0
26/04:00am 12.6 7.7 5.3 61 3.4 WNW 20 30 11 16 1016.5 1016.2 0.0
26/03:30am 12.4 8.0 2.6 51 4.3 WNW 15 20 8 11 1016.4 1016.1 0.0
26/03:00am 13.2 7.4 2.1 47 4.8 WNW 22 35 12 19 1016.5 1016.2 0.0
26/02:30am 10.7 7.0 2.5 57 3.5 N 11 13 6 7 1016.1 1015.8 0.0
26/02:00am 11.1 7.4 2.2 54 3.8 N 11 13 6 7 1016.3 1016.0 0.0
26/01:30am 11.6 7.8 1.8 51 4.2 NNW 11 13 6 7 1016.4 1016.1 0.0
26/01:00am 11.3 7.6 2.1 53 3.9 NNW 11 13 6 7 1016.5 1016.2 0.0
26/12:30am 10.8 7.0 1.6 53 3.9 NNW 11 13 6 7 1016.6 1016.3 0.0
26/12:00am 12.2 8.8 1.8 49 4.5 NW 9 15 5 8 1016.6 1016.3 0.0
 
Date/Time
EDT
Temp
°C
App
Temp
°C
Dew
Point
Rel
Hum
%
Delta-T
°C
Wind Press
QNH
hPa
Press
MSL
hPa
Rain
since 9 am
mm
Dir
 
Spd
km/h
Gust
km/h
Spd
kts
Gust
kts
25/11:30pm 12.3 8.5 1.6 48 4.6 NW 11 17 6 9 1016.7 1016.4 0.0
25/11:00pm 13.1 9.3 1.8 46 4.9 NW 11 15 6 8 1016.6 1016.3 0.0
25/10:30pm 13.2 9.7 1.5 45 5.1 WNW 9 13 5 7 1016.4 1016.1 0.0
25/10:00pm 14.2 9.9 1.2 41 5.6 WNW 13 17 7 9 1016.5 1016.2 0.0
25/09:30pm 15.4 10.3 0.8 37 6.3 W 17 22 9 12 1016.3 1016.0 0.0
25/09:00pm 16.1 10.7 1.0 36 6.6 W 19 26 10 14 1016.0 1015.7 0.0
25/08:30pm 17.4 11.9 1.8 35 7.0 W 20 33 11 18 1015.4 1015.1 0.0
25/08:00pm 18.5 13.9 3.9 38 6.9 WNW 17 20 9 11 1014.8 1014.5 0.0
25/07:30pm 19.3 14.5 4.6 38 7.1 WNW 19 24 10 13 1014.5 1014.2 0.0
25/07:00pm 20.8 16.8 4.8 35 7.9 NW 15 19 8 10 1014.3 1014.0 0.0
25/06:30pm 21.4 17.4 4.9 34 8.2 NW 15 22 8 12 1014.0 1013.7 0.0
25/06:00pm 21.9 17.1 4.5 32 8.6 WNW 19 26 10 14 1013.8 1013.5 0.0
25/05:30pm 23.0 19.5 5.4 32 8.9 NNW 13 20 7 11 1013.7 1013.4 0.0
25/05:00pm 21.4 16.6 4.9 34 8.2 NNW 19 28 10 15 1013.8 1013.5 0.0
25/04:30pm 22.5 18.2 5.4 33 8.6 NNW 17 30 9 16 1013.9 1013.6 0.0
25/04:00pm 23.0 18.3 5.9 33 8.7 NNW 20 33 11 18 1014.0 1013.7 0.0
25/03:30pm 22.7 18.0 5.2 32 8.8 NNW 19 32 10 17 1014.2 1013.9 0.0
25/03:00pm 22.3 18.2 6.1 35 8.2 N 17 22 9 12 1014.5 1014.2 0.0
25/02:30pm 21.0 17.7 6.5 39 7.4 NNW 13 26 7 14 1015.1 1014.8 0.0
25/02:00pm 20.9 17.1 7.5 42 6.9 N 17 28 9 15 1015.7 1015.4 0.0
25/01:30pm 20.8 16.6 7.4 42 6.9 NNW 19 24 10 13 1016.0 1015.7 0.0
25/01:00pm 20.8 17.1 8.1 44 6.6 N 17 32 9 17 1016.4 1016.1 0.0
25/12:30pm 20.2 17.3 8.2 46 6.3 N 13 22 7 12 1017.1 1016.8 0.0
25/12:00pm 19.1 16.5 7.8 48 5.8 NNE 11 19 6 10 1017.3 1017.0 0.0
25/11:30am 18.8 17.1 8.5 51 5.4 NNW 7 15 4 8 1017.7 1017.4 0.0
25/11:00am 16.8 15.1 8.2 57 4.4 SE 7 11 4 6 1018.0 1017.7 0.0
25/10:30am 15.3 13.8 8.5 64 3.5 SE 6 9 3 5 1018.1 1017.8 0.0
25/10:00am 14.4 12.3 8.1 66 3.2 ESE 9 13 5 7 1018.1 1017.8 0.0
25/09:30am 13.7 10.8 8.3 70 2.7 SSE 13 19 7 10 1017.9 1017.6 0.0
25/09:00am 12.4 9.6 8.5 77 1.9 SSE 13 15 7 8 1018.0 1017.7 0.0
25/08:30am 11.3 8.8 8.3 82 1.5 SSE 11 15 6 8 1017.8 1017.5 0.0
25/08:00am 9.9 7.8 8.2 89 0.8 SSW 9 11 5 6 1017.8 1017.5 0.0
25/07:30am 8.6 6.2 7.1 90 0.7 SW 9 11 5 6 1017.5 1017.2 0.0
25/07:00am 8.7 6.3 7.0 89 0.8 SSW 9 11 5 6 1016.8 1016.5 0.0
25/06:30am 9.0 5.9 7.1 88 0.9 SSE 13 15 7 8 1016.2 1015.9 0.0
25/06:00am 9.0 6.3 7.3 89 0.8 SSE 11 15 6 8 1016.0 1015.7 0.0
25/05:30am 8.7 6.3 7.0 89 0.8 SSE 9 13 5 7 1016.1 1015.8 0.0
25/05:00am 8.8 6.4 6.9 88 0.9 SW 9 9 5 5 1016.4 1016.1 0.0
25/04:30am 9.1 6.3 7.1 87 0.9 SW 11 13 6 7 1016.3 1016.0 0.0
25/04:00am 10.1 7.1 7.5 84 1.2 SW 13 19 7 10 1016.2 1015.9 0.0
25/03:30am 10.4 7.4 7.6 83 1.4 S 13 19 7 10 1016.0 1015.7 0.0
25/03:00am 10.7 7.0 7.8 82 1.4 SSW 17 20 9 11 1016.4 1016.1 0.0
25/02:30am 10.7 7.3 7.8 82 1.4 S 15 20 8 11 1016.6 1016.3 0.0
25/02:00am 11.2 7.5 8.1 81 1.5 S 17 24 9 13 1017.0 1016.7 0.0
25/01:30am 11.2 7.2 8.1 81 1.5 S 19 24 10 13 1017.2 1016.9 0.0
25/01:00am 11.4 7.7 8.1 80 1.6 S 17 22 9 12 1017.3 1017.0 0.0
25/12:30am 11.5 7.8 7.8 78 1.8 S 17 22 9 12 1017.5 1017.2 0.0
25/12:00am 11.9 6.8 7.8 76 2.0 SSE 24 33 13 18 1017.5 1017.2 0.0
 
Date/Time
EDT
Temp
°C
App
Temp
°C
Dew
Point
Rel
Hum
%
Delta-T
°C
Wind Press
QNH
hPa
Press
MSL
hPa
Rain
since 9 am
mm
Dir
 
Spd
km/h
Gust
km/h
Spd
kts
Gust
kts
24/11:30pm 12.2 7.1 7.7 74 2.2 S 24 32 13 17 1017.6 1017.3 0.0
24/11:00pm 12.4 6.1 7.5 72 2.4 S 30 37 16 20 1017.8 1017.5 0.0
24/10:30pm 12.6 7.1 7.7 72 2.4 SSE 26 43 14 23 1017.8 1017.5 0.0
24/10:00pm 12.6 7.6 7.9 73 2.3 S 24 39 13 21 1017.9 1017.6 0.0
24/09:30pm 12.9 7.5 7.8 71 2.5 S 26 35 14 19 1017.8 1017.5 0.0
24/09:00pm 12.9 8.1 7.4 69 2.7 S 22 32 12 17 1017.8 1017.5 0.0
24/08:30pm 13.4 6.7 7.4 67 2.9 S 32 44 17 24 1017.5 1017.2 0.0
24/08:00pm 13.8 7.2 7.6 66 3.1 S 32 46 17 25 1017.1 1016.8 0.0
24/07:30pm 14.2 7.9 7.3 63 3.4 S 30 41 16 22 1016.6 1016.3 0.0
24/07:00pm 14.8 8.3 6.6 58 4.0 S 30 52 16 28 1016.3 1016.0 0.0
24/06:50pm 15.2 8.4 6.7 57 4.2 S 32 50 17 27 1016.2 1015.9 0.0
24/06:30pm 15.3 8.0 7.1 58 4.1 S 35 46 19 25 1016.0 1015.7 0.0
24/06:10pm 15.7 8.4 7.2 57 4.2 S 35 54 19 29 1015.7 1015.4 0.0
24/06:00pm 15.9 7.4 7.1 56 4.4 SSW 41 50 22 27 1015.4 1015.1 0.0
24/05:42pm 16.1 8.3 6.8 54 4.6 SSW 37 54 20 29 1015.4 1015.1 0.0
24/05:38pm 16.0 8.7 7.0 55 4.5 SSW 35 46 19 25 1015.3 1015.0 0.0
24/05:30pm 16.8 9.8 6.9 52 4.9 SSW 33 46 18 25 1015.3 1015.0 0.0
24/05:20pm 16.7 9.6 6.5 51 5.0 S 33 52 18 28 1015.0 1014.7 0.0
24/05:00pm 17.3 9.8 6.5 49 5.3 SSW 35 44 19 24 1014.9 1014.6 0.0
24/04:30pm 17.5 10.0 6.1 47 5.6 SSW 35 48 19 26 1014.9 1014.6 0.0
24/04:00pm 18.2 12.0 6.1 45 6.0 SSW 28 43 15 23 1014.8 1014.5 0.0
24/03:30pm 16.9 9.4 6.4 50 5.2 SSW 35 48 19 26 1015.1 1014.8 0.0
24/03:00pm 17.0 9.5 6.2 49 5.3 S 35 44 19 24 1015.1 1014.8 0.0
24/02:30pm 18.2 10.3 6.1 45 6.0 SSW 37 52 20 28 1014.9 1014.6 0.0
24/02:05pm 19.3 12.8 6.4 43 6.5 SSW 30 52 16 28 1015.0 1014.7 0.0
24/02:00pm 18.7 12.2 6.5 45 6.1 S 30 44 16 24 1015.0 1014.7 0.0
24/01:59pm 18.7 12.3 6.9 46 6.0 S 30 48 16 26 1015.1 1014.8 0.0
24/01:43pm 17.7 10.6 6.3 47 5.6 SSW 33 46 18 25 1015.1 1014.8 0.0
24/01:30pm 19.0 12.1 6.5 44 6.3 SSW 32 44 17 24 1014.9 1014.6 0.0
24/01:00pm 17.8 10.7 5.7 45 5.9 S 32 41 17 22 1015.1 1014.8 0.0
24/12:30pm 17.8 11.6 6.0 46 5.8 S 28 43 15 23 1015.1 1014.8 0.0
24/12:00pm 18.6 12.1 6.4 45 6.1 S 30 41 16 22 1015.2 1014.9 0.0
24/11:30am 17.8 11.0 7.0 49 5.4 S 32 43 17 23 1015.4 1015.1 0.0
24/11:00am 17.1 10.2 7.2 52 5.0 S 33 43 18 23 1015.4 1015.1 0.0

Other Formats:

Comma delimited format used in spreadsheet applications
http://www.bom.gov.au/fwo/IDV60801/IDV60801.94875.axf

JavaScript Object Notation format (JSON) in row-major order
http://www.bom.gov.au/fwo/IDV60801/IDV60801.94875.json